Time;durP1;ratioP1;P1;durP2;ratioP2;P2;SDS_P1;SDS_P2;PMS_P1;PMS_P2;Temp;Humidity;BMP_temperature;BMP_pressure;BME280_temperature;BME280_humidity;BME280_pressure;Samples;Min_cycle;Max_cycle;Signal;HPM_P1;HPM_P2
2022/04/02 00:00:14;;;;;;;0.63;0.20;;;;;;;23.31;56.18;101983.41;5033935;28;20176;-65
2022/04/02 00:02:39;;;;;;;0.70;0.25;;;;;;;23.34;54.71;101990.44;5033913;28;20052;-65
2022/04/02 00:05:04;;;;;;;1.05;0.38;;;;;;;23.37;55.50;101982.72;5033835;28;20397;-66
2022/04/02 00:07:30;;;;;;;1.38;0.65;;;;;;;23.38;55.20;101978.09;5033742;28;20025;-65
2022/04/02 00:09:55;;;;;;;0.40;0.22;;;;;;;23.42;55.34;101983.03;5033865;28;20021;-65
2022/04/02 00:12:21;;;;;;;1.50;0.17;;;;;;;23.42;54.97;101984.94;5033642;28;20029;-65
2022/04/02 00:14:47;;;;;;;0.20;0.10;;;;;;;23.44;53.83;101985.59;5033869;28;20086;-65
2022/04/02 00:17:12;;;;;;;0.30;0.30;;;;;;;23.45;53.22;101984.56;5032384;28;20447;-66
2022/04/02 00:19:38;;;;;;;0.85;0.20;;;;;;;23.48;54.64;101980.59;5032848;28;20057;-65
2022/04/02 00:22:04;;;;;;;0.45;0.20;;;;;;;23.50;53.93;101987.63;5033244;28;20025;-65
2022/04/02 00:24:29;;;;;;;0.40;0.10;;;;;;;23.53;52.66;101976.31;5033424;28;20033;-65
2022/04/02 00:26:54;;;;;;;0.40;0.10;;;;;;;23.53;53.49;101976.31;5033550;28;20041;-65
2022/04/02 00:29:19;;;;;;;0.63;0.20;;;;;;;23.54;52.40;101978.03;5033366;28;20017;-65
2022/04/02 00:31:45;;;;;;;0.13;0.10;;;;;;;23.57;53.80;101980.44;5033499;28;20021;-65
2022/04/02 00:34:10;;;;;;;0.93;0.22;;;;;;;23.56;53.24;101981.44;5033330;28;20021;-65
2022/04/02 00:36:38;;;;;;;0.05;0.00;;;;;;;23.57;53.59;101977.69;5033369;28;20037;-65
2022/04/02 00:39:05;;;;;;;0.82;0.20;;;;;;;23.60;52.13;101971.84;5033413;28;20033;-65
2022/04/02 00:41:31;;;;;;;1.20;0.20;;;;;;;23.61;51.91;101978.19;5033045;28;20033;-64
2022/04/02 00:44:14;;;;;;;0.75;0.38;;;;;;;23.62;52.10;101963.41;5033252;28;20036;-65
2022/04/02 00:46:42;;;;;;;0.50;0.22;;;;;;;23.64;53.11;101962.19;5033250;28;20056;-64
2022/04/02 00:49:11;;;;;;;0.35;0.15;;;;;;;23.65;51.65;101963.91;5033235;28;20029;-65
2022/04/02 00:51:41;;;;;;;0.65;0.20;;;;;;;23.66;51.72;101967.50;5032878;28;20376;-65
2022/04/02 00:54:08;;;;;;;0.65;0.13;;;;;;;23.67;50.82;101961.84;5033085;28;20033;-65
2022/04/02 00:56:35;;;;;;;1.90;0.20;;;;;;;23.68;51.47;101958.09;5032957;28;20476;-65
2022/04/02 00:59:00;;;;;;;0.20;0.20;;;;;;;23.66;52.28;101968.38;5033046;28;20465;-65
2022/04/02 01:01:25;;;;;;;0.70;0.30;;;;;;;23.70;52.48;101968.88;5032655;28;20028;-65
2022/04/02 01:03:51;;;;;;;0.65;0.20;;;;;;;23.69;51.75;101970.78;5032887;28;20025;-65
2022/04/02 01:06:16;;;;;;;0.65;0.47;;;;;;;23.70;52.18;101966.13;5032306;28;20481;-65
2022/04/02 01:08:42;;;;;;;0.77;0.10;;;;;;;23.73;51.50;101967.66;5032755;28;20393;-65
2022/04/02 01:11:07;;;;;;;0.60;0.35;;;;;;;23.72;51.92;101968.69;5032798;28;20108;-64
2022/04/02 01:13:32;;;;;;;0.60;0.25;;;;;;;23.72;51.90;101974.19;5032673;28;20420;-65
2022/04/02 01:15:58;;;;;;;1.10;0.20;;;;;;;23.73;51.31;101964.91;5032679;28;20033;-65
2022/04/02 01:18:23;;;;;;;0.22;0.20;;;;;;;23.72;52.05;101974.19;5031207;28;20469;-65
2022/04/02 01:20:48;;;;;;;2.45;0.32;;;;;;;23.73;51.61;101971.25;5032533;28;20022;-65
2022/04/02 01:23:14;;;;;;;0.73;0.10;;;;;;;23.76;50.76;101970.03;5032456;28;20033;-65
2022/04/02 01:25:40;;;;;;;0.77;0.50;;;;;;;23.75;51.15;101973.81;5032573;28;20537;-65
2022/04/02 01:28:05;;;;;;;1.25;0.40;;;;;;;23.77;51.47;101971.75;5032566;28;20037;-65
2022/04/02 01:30:31;;;;;;;0.22;0.20;;;;;;;23.75;51.50;101980.16;5032165;28;20030;-64
2022/04/02 01:32:57;;;;;;;2.15;0.20;;;;;;;23.79;51.61;101975.16;5031817;28;20465;-65
2022/04/02 01:35:23;;;;;;;0.63;0.40;;;;;;;23.75;51.21;101974.69;5032237;28;20072;-64
2022/04/02 01:37:49;;;;;;;0.55;0.30;;;;;;;23.77;51.19;101967.13;5032521;28;20045;-65
2022/04/02 01:40:15;;;;;;;0.30;0.22;;;;;;;23.79;51.28;101969.69;5032184;28;20068;-65
2022/04/02 01:42:40;;;;;;;1.02;0.30;;;;;;;23.79;51.57;101964.19;5032392;28;20049;-65
2022/04/02 01:45:06;;;;;;;0.50;0.40;;;;;;;23.79;51.02;101959.53;5032363;28;20036;-66
2022/04/02 01:47:31;;;;;;;1.00;0.63;;;;;;;23.79;51.11;101964.19;5032054;28;20029;-65
2022/04/02 01:49:57;;;;;;;0.75;0.20;;;;;;;23.79;51.25;101956.81;5031989;28;20028;-65
2022/04/02 01:52:22;;;;;;;0.60;0.20;;;;;;;23.82;50.68;101961.06;5032077;28;20022;-68
2022/04/02 01:54:48;;;;;;;0.35;0.30;;;;;;;23.81;50.93;101967.59;5032368;28;20084;-65
2022/04/02 01:57:15;;;;;;;0.43;0.20;;;;;;;23.82;50.31;101963.81;5032118;28;20021;-65
2022/04/02 01:59:44;;;;;;;1.30;0.10;;;;;;;23.81;50.31;101967.59;5032174;28;20026;-65
2022/04/02 02:02:09;;;;;;;1.10;0.20;;;;;;;23.79;51.38;101964.19;5032024;28;20030;-65
2022/04/02 02:04:34;;;;;;;0.22;0.10;;;;;;;23.83;51.18;101965.53;5031965;28;20057;-65
2022/04/02 02:07:00;;;;;;;0.55;0.20;;;;;;;23.84;51.29;101959.84;5032274;28;20022;-65
2022/04/02 02:09:26;;;;;;;0.38;0.22;;;;;;;23.83;50.61;101965.53;5032390;28;20031;-65
2022/04/02 02:11:51;;;;;;;1.95;0.20;;;;;;;23.82;50.78;101963.81;5032125;28;20029;-65
2022/04/02 02:14:16;;;;;;;0.40;0.20;;;;;;;23.84;50.57;101961.75;5031872;28;20385;-65
2022/04/02 02:16:42;;;;;;;0.63;0.13;;;;;;;23.85;50.97;101958.84;5032127;28;20033;-65
2022/04/02 02:19:07;;;;;;;1.63;0.43;;;;;;;23.84;50.67;101957.09;5032136;28;20021;-65
2022/04/02 02:21:32;;;;;;;0.98;0.30;;;;;;;23.87;50.44;101961.41;5031917;28;20040;-65
2022/04/02 02:23:58;;;;;;;0.45;0.10;;;;;;;23.86;50.27;101959.69;5032038;28;20075;-65
2022/04/02 02:26:23;;;;;;;0.28;0.10;;;;;;;23.84;51.21;101954.34;5031713;28;20022;-65
2022/04/02 02:28:49;;;;;;;0.93;0.20;;;;;;;23.86;50.55;101948.72;5032124;28;20357;-65
2022/04/02 02:31:14;;;;;;;0.32;0.28;;;;;;;23.87;51.32;101956.78;5031860;28;20022;-65
2022/04/02 02:36:25;;;;;;;0.32;0.10;;;;;;;23.87;50.26;101953.16;5031705;28;20075;-64
2022/04/02 02:38:51;;;;;;;0.45;0.20;;;;;;;23.86;50.65;101948.72;5031975;28;20029;-65
2022/04/02 02:41:16;;;;;;;0.30;0.20;;;;;;;23.86;50.93;101943.22;5031639;28;20037;-65
2022/04/02 02:43:42;;;;;;;0.30;0.10;;;;;;;23.85;50.24;101952.47;5033926;28;20443;-64
2022/04/02 02:46:08;;;;;;;0.98;0.40;;;;;;;23.85;50.33;101947.84;5035487;28;20033;-65
2022/04/02 02:48:34;;;;;;;2.70;0.28;;;;;;;23.87;50.27;101950.41;5035570;28;20028;-64
2022/04/02 02:50:59;;;;;;;0.93;0.32;;;;;;;23.87;51.23;101942.19;5035317;28;20108;-65
2022/04/02 02:53:25;;;;;;;0.30;0.28;;;;;;;23.86;50.90;101938.59;5035114;28;20063;-64
2022/04/02 02:55:50;;;;;;;0.50;0.13;;;;;;;23.87;50.29;101939.44;5035319;28;20021;-65
2022/04/02 02:58:16;;;;;;;1.10;0.30;;;;;;;23.86;51.12;101938.59;5035123;28;20377;-65
2022/04/02 03:00:46;;;;;;;0.68;0.00;;;;;;;23.86;50.71;101944.06;5035229;28;20029;-64
2022/04/02 03:03:11;;;;;;;1.38;0.20;;;;;;;23.90;51.12;101944.56;5035072;28;20017;-64
2022/04/02 03:05:37;;;;;;;0.60;0.20;;;;;;;23.87;50.25;101945.78;5035271;28;20393;-65
2022/04/02 03:08:02;;;;;;;0.30;0.28;;;;;;;23.87;50.06;101955.91;5035034;28;20481;-65
2022/04/02 03:10:28;;;;;;;0.38;0.20;;;;;;;23.86;50.72;101948.72;5034839;28;20029;-65
2022/04/02 03:12:56;;;;;;;0.88;0.22;;;;;;;23.88;51.11;101957.63;5035028;28;20049;-65
2022/04/02 03:15:22;;;;;;;0.65;0.30;;;;;;;23.88;49.86;101957.63;5034812;28;20459;-64
2022/04/02 03:17:49;;;;;;;0.47;0.13;;;;;;;23.88;50.54;101957.63;5033941;28;20362;-64
2022/04/02 03:20:17;;;;;;;0.60;0.30;;;;;;;23.89;50.06;101953.84;5034494;28;20039;-64
2022/04/02 03:22:43;;;;;;;0.15;0.15;;;;;;;23.90;50.82;101944.56;5033237;28;20033;-65
2022/04/02 03:25:11;;;;;;;0.30;0.30;;;;;;;23.86;51.13;101943.22;5034750;28;20029;-65
2022/04/02 03:27:37;;;;;;;0.17;0.15;;;;;;;23.89;49.88;101948.34;5034719;28;20067;-64
2022/04/02 03:30:05;;;;;;;0.63;0.30;;;;;;;23.91;50.64;101946.28;5034683;28;20536;-65
2022/04/02 03:32:31;;;;;;;1.05;0.30;;;;;;;23.89;50.14;101951.09;5034453;28;20404;-64
2022/04/02 03:34:56;;;;;;;0.63;0.20;;;;;;;23.90;50.22;101961.91;5034686;28;20022;-64
2022/04/02 03:37:21;;;;;;;1.33;0.50;;;;;;;23.89;49.63;101953.84;5034356;28;20033;-65
2022/04/02 03:39:47;;;;;;;0.32;0.20;;;;;;;23.89;50.06;101949.19;5033156;28;20017;-64
2022/04/02 03:42:12;;;;;;;0.32;0.20;;;;;;;23.89;50.65;101949.19;5034065;28;20025;-65
2022/04/02 03:44:37;;;;;;;1.48;0.20;;;;;;;23.88;49.81;101946.63;5034388;28;20104;-64
2022/04/02 03:47:09;;;;;;;0.28;0.10;;;;;;;23.89;49.40;101946.44;5034360;28;20053;-65
2022/04/02 03:49:40;;;;;;;1.02;0.50;;;;;;;23.89;50.82;101953.84;5034224;28;20025;-65
2022/04/02 03:52:06;;;;;;;0.35;0.20;;;;;;;23.89;50.31;101948.34;5034179;28;20025;-65
2022/04/02 03:54:32;;;;;;;0.85;0.25;;;;;;;23.90;50.21;101955.53;5033065;28;20112;-64
2022/04/02 03:56:58;;;;;;;1.13;0.47;;;;;;;23.90;50.44;101950.06;5034245;28;20029;-65
2022/04/02 03:59:23;;;;;;;0.22;0.08;;;;;;;23.90;50.11;101953.66;5033964;28;20026;-64
2022/04/02 04:01:49;;;;;;;1.05;0.45;;;;;;;23.95;49.98;101948.47;5034301;28;20424;-64
2022/04/02 04:04:14;;;;;;;0.50;0.30;;;;;;;24.07;50.07;101956.28;5033776;28;20032;-65
2022/04/02 04:06:39;;;;;;;0.20;0.17;;;;;;;24.18;49.79;101951.19;5033993;28;20029;-65
2022/04/02 04:09:04;;;;;;;0.32;0.20;;;;;;;24.22;49.51;101955.31;5034020;28;20064;-65
2022/04/02 04:11:30;;;;;;;1.98;0.30;;;;;;;24.24;49.46;101953.22;5033341;28;20013;-65
2022/04/02 04:13:56;;;;;;;0.57;0.35;;;;;;;24.29;48.63;101950.81;5033715;28;20064;-65
2022/04/02 04:16:22;;;;;;;0.57;0.22;;;;;;;24.30;48.72;101946.16;5032525;28;20385;-65
2022/04/02 04:18:48;;;;;;;0.50;0.10;;;;;;;24.35;48.13;101948.34;5033715;28;20025;-65
2022/04/02 04:21:14;;;;;;;1.00;0.43;;;;;;;24.38;47.77;101950.75;5033261;28;20387;-65
2022/04/02 04:23:40;;;;;;;0.20;0.13;;;;;;;24.43;47.38;101951.06;5033549;28;20025;-64
2022/04/02 04:26:06;;;;;;;0.28;0.15;;;;;;;24.42;46.94;101938.34;5033462;28;20032;-65
2022/04/02 04:28:31;;;;;;;0.10;0.10;;;;;;;24.43;47.13;101937.31;5033292;28;20473;-64
2022/04/02 04:30:56;;;;;;;0.80;0.17;;;;;;;24.46;47.48;101931.44;5033597;28;20025;-65
2022/04/02 04:33:22;;;;;;;0.47;0.25;;;;;;;24.48;46.70;101946.69;5033327;28;20028;-65
2022/04/02 04:35:47;;;;;;;0.70;0.22;;;;;;;24.50;47.06;101930.00;5032251;28;20067;-65
2022/04/02 04:38:12;;;;;;;1.52;0.20;;;;;;;24.52;46.41;101939.81;5033501;28;20490;-64
2022/04/02 04:40:38;;;;;;;1.05;0.20;;;;;;;24.54;46.67;101934.97;5033354;28;20028;-64
2022/04/02 04:43:03;;;;;;;0.45;0.10;;;;;;;24.54;46.35;101934.13;5032860;28;20485;-64
2022/04/02 04:45:28;;;;;;;0.40;0.10;;;;;;;24.51;46.43;101937.22;5033058;28;20029;-65
2022/04/02 04:47:53;;;;;;;0.20;0.10;;;;;;;24.56;46.55;101937.53;5032153;28;20029;-65
2022/04/02 04:50:19;;;;;;;0.70;0.20;;;;;;;24.57;46.00;101925.50;5032986;28;20025;-64
2022/04/02 04:52:45;;;;;;;0.20;0.20;;;;;;;24.59;46.23;101928.91;5033134;28;20029;-65
2022/04/02 04:55:10;;;;;;;1.38;0.30;;;;;;;24.59;46.37;101929.75;5033087;28;20022;-65
2022/04/02 04:57:36;;;;;;;0.52;0.20;;;;;;;24.58;46.35;101930.81;5033011;28;20491;-64
2022/04/02 05:00:03;;;;;;;1.83;0.20;;;;;;;24.61;45.78;101932.31;5032888;28;20389;-65
2022/04/02 05:02:30;;;;;;;0.20;0.10;;;;;;;24.59;45.32;101928.91;5032640;28;20064;-64
2022/04/02 05:04:56;;;;;;;0.20;0.20;;;;;;;24.62;45.52;101927.69;5032848;28;20042;-65
2022/04/02 05:07:21;;;;;;;0.70;0.28;;;;;;;24.59;46.06;101926.16;5031150;28;20071;-65
2022/04/02 05:09:46;;;;;;;3.22;0.40;;;;;;;24.60;45.86;101916.88;5032837;28;20071;-65
2022/04/02 05:12:12;;;;;;;1.98;0.22;;;;;;;24.60;45.73;101930.63;5032396;28;20100;-64
2022/04/02 05:14:38;;;;;;;1.60;0.20;;;;;;;24.66;45.20;101924.34;5032736;28;20101;-64
2022/04/02 05:17:04;;;;;;;1.55;0.30;;;;;;;24.65;45.43;101919.03;5032831;28;20373;-65
2022/04/02 05:19:30;;;;;;;0.38;0.20;;;;;;;24.68;45.54;101927.78;5032489;28;20093;-64
2022/04/02 05:21:55;;;;;;;1.08;0.20;;;;;;;24.65;45.79;101921.78;5032601;28;20025;-64
2022/04/02 05:24:20;;;;;;;0.40;0.30;;;;;;;24.64;45.35;101915.44;5032480;28;20032;-64
2022/04/02 05:26:47;;;;;;;1.48;0.22;;;;;;;24.68;45.85;101916.75;5032562;28;20564;-64
2022/04/02 05:29:15;;;;;;;2.17;0.38;;;;;;;24.65;45.43;101917.16;5032512;28;20070;-64
2022/04/02 05:31:43;;;;;;;1.42;0.20;;;;;;;24.69;45.63;101907.50;5032841;28;20122;-64
2022/04/02 05:34:09;;;;;;;0.77;0.30;;;;;;;24.69;44.74;101907.50;5032459;28;20417;-64
2022/04/02 05:36:35;;;;;;;1.05;0.20;;;;;;;24.66;45.13;101909.75;5032653;28;20484;-64
2022/04/02 05:39:01;;;;;;;0.20;0.17;;;;;;;24.69;44.99;101913.00;5031222;28;20043;-64
2022/04/02 05:41:26;;;;;;;0.20;0.10;;;;;;;24.69;44.98;101909.38;5031926;28;20465;-64
2022/04/02 05:43:51;;;;;;;0.10;0.10;;;;;;;24.70;45.83;101909.22;5032439;28;20485;-65
2022/04/02 05:46:17;;;;;;;1.40;0.40;;;;;;;24.69;45.46;101910.25;5032268;28;20061;-64
2022/04/02 05:48:42;;;;;;;0.65;0.30;;;;;;;24.74;45.36;101905.03;5032297;28;20034;-64
2022/04/02 05:51:08;;;;;;;0.85;0.30;;;;;;;24.74;45.26;101916.03;5032651;28;20104;-64
2022/04/02 05:53:34;;;;;;;0.30;0.20;;;;;;;24.73;45.51;101902.47;5032229;28;20025;-64
2022/04/02 05:56:01;;;;;;;0.28;0.10;;;;;;;24.73;45.65;101914.34;5032257;28;20029;-64
2022/04/02 05:58:27;;;;;;;0.43;0.20;;;;;;;24.75;45.90;101906.75;5032127;28;20025;-64
2022/04/02 06:00:53;;;;;;;0.75;0.10;;;;;;;24.74;45.47;101907.78;5032299;28;20018;-64
2022/04/02 06:03:20;;;;;;;0.25;0.20;;;;;;;24.74;45.30;101910.53;5032037;28;20033;-65
2022/04/02 06:05:46;;;;;;;0.47;0.10;;;;;;;24.76;45.30;101905.69;5032129;28;20056;-64
2022/04/02 06:08:11;;;;;;;1.10;0.20;;;;;;;24.75;45.55;101906.75;5030705;28;20481;-65
2022/04/02 06:10:37;;;;;;;0.30;0.15;;;;;;;24.75;45.41;101911.38;5032123;28;20117;-64
2022/04/02 06:13:02;;;;;;;0.20;0.20;;;;;;;24.76;45.85;101904.84;5031783;28;20033;-64
2022/04/02 06:15:27;;;;;;;0.10;0.10;;;;;;;24.74;45.73;101910.53;5031984;28;20116;-64
2022/04/02 06:17:53;;;;;;;1.65;0.22;;;;;;;24.76;45.08;101907.59;5032914;28;20029;-64
2022/04/02 06:20:18;;;;;;;0.25;0.10;;;;;;;24.75;45.62;101904.00;5035906;28;20037;-64
2022/04/02 06:22:44;;;;;;;0.68;0.20;;;;;;;24.75;45.79;101906.75;5035915;28;20104;-64
2022/04/02 06:25:09;;;;;;;0.85;0.30;;;;;;;24.75;45.45;101906.75;5021116;28;20026;-64
2022/04/02 06:27:43;;;;;;;0.70;0.10;;;;;;;24.79;45.59;101902.56;5016075;28;20021;-64
2022/04/02 06:30:15;;;;;;;1.23;0.10;;;;;;;24.79;45.53;101901.72;5016000;28;20029;-65
2022/04/02 06:32:41;;;;;;;0.65;0.10;;;;;;;24.78;44.59;101906.38;5015950;28;20030;-64
2022/04/02 06:35:07;;;;;;;1.20;0.20;;;;;;;24.81;45.76;101900.47;5015952;28;20038;-64
2022/04/02 06:37:41;;;;;;;0.82;0.10;;;;;;;24.82;45.38;101904.94;5015821;28;20026;-64
2022/04/02 06:40:11;;;;;;;0.30;0.10;;;;;;;24.80;45.43;101893.28;5015851;28;20033;-64
2022/04/02 06:42:37;;;;;;;0.40;0.10;;;;;;;24.82;45.53;101884.81;5027555;28;20057;-64
2022/04/02 06:45:04;;;;;;;0.28;0.13;;;;;;;24.82;45.79;101891.19;5035615;28;20057;-64
2022/04/02 06:47:30;;;;;;;1.45;0.20;;;;;;;24.84;45.54;101889.09;5035266;28;20034;-64
2022/04/02 06:49:56;;;;;;;0.20;0.10;;;;;;;24.79;45.11;101888.81;5035450;28;20024;-64
2022/04/02 06:52:22;;;;;;;0.95;0.20;;;;;;;24.81;45.00;101883.13;5035255;28;20033;-64
2022/04/02 06:54:47;;;;;;;0.60;0.10;;;;;;;24.82;45.55;101884.81;5035326;28;20151;-64
2022/04/02 06:57:19;;;;;;;0.32;0.20;;;;;;;24.84;45.54;101878.09;5035246;28;20288;-64
2022/04/02 06:59:45;;;;;;;0.80;0.20;;;;;;;24.83;45.84;101881.88;5035277;28;20532;-64
2022/04/02 07:02:10;;;;;;;0.52;0.20;;;;;;;24.81;45.47;101875.72;5035010;28;20129;-64
2022/04/02 07:04:35;;;;;;;0.70;0.20;;;;;;;24.83;44.60;101870.88;5034862;28;20041;-64
2022/04/02 07:07:01;;;;;;;0.60;0.20;;;;;;;24.81;45.48;101872.97;5035185;28;20100;-65
2022/04/02 07:09:26;;;;;;;0.95;0.22;;;;;;;24.84;46.01;101867.09;5033569;28;20052;-64
2022/04/02 07:11:51;;;;;;;1.15;0.30;;;;;;;24.84;45.83;101867.09;5034771;28;20386;-64
2022/04/02 07:14:17;;;;;;;0.60;0.25;;;;;;;24.85;45.73;101863.28;5034824;28;20282;-64
2022/04/02 07:16:43;;;;;;;1.95;0.40;;;;;;;24.84;45.92;101863.47;5035040;28;20029;-64
2022/04/02 07:19:09;;;;;;;0.95;0.30;;;;;;;24.86;45.36;101861.44;5035059;28;20073;-64
2022/04/02 07:21:35;;;;;;;0.95;0.28;;;;;;;24.86;45.77;101847.66;5034687;28;20033;-64
2022/04/02 07:24:01;;;;;;;0.95;0.30;;;;;;;24.85;45.20;101857.78;5034786;28;20025;-64
2022/04/02 07:26:26;;;;;;;0.45;0.10;;;;;;;24.84;46.21;101855.22;5034524;28;20072;-64
2022/04/02 07:28:53;;;;;;;0.50;0.20;;;;;;;24.84;45.57;101856.09;5034817;28;20033;-65
2022/04/02 07:31:19;;;;;;;0.65;0.20;;;;;;;24.83;45.30;101857.13;5034554;28;20021;-64
2022/04/02 07:33:44;;;;;;;0.20;0.20;;;;;;;24.88;45.89;101846.44;5034636;28;20025;-64
2022/04/02 07:36:22;;;;;;;0.45;0.20;;;;;;;24.89;45.09;101848.13;5034509;28;20064;-64
2022/04/02 07:39:01;;;;;;;0.43;0.20;;;;;;;24.90;45.43;101847.09;5034488;28;20025;-64
2022/04/02 07:41:51;;;;;;;0.43;0.25;;;;;;;24.88;45.07;101854.69;5034046;28;20030;-64
2022/04/02 07:44:23;;;;;;;0.63;0.30;;;;;;;24.87;45.29;101844.72;5034312;28;20022;-64
2022/04/02 07:46:49;;;;;;;0.32;0.10;;;;;;;24.84;45.30;101850.59;5034341;28;20025;-64
2022/04/02 07:49:20;;;;;;;0.30;0.15;;;;;;;24.86;45.31;101848.53;5034235;28;20436;-64
2022/04/02 07:51:52;;;;;;;0.30;0.20;;;;;;;24.88;45.10;101849.19;5032968;28;20023;-64
2022/04/02 07:54:21;;;;;;;0.32;0.10;;;;;;;24.87;45.46;101850.22;5032976;28;20018;-64
2022/04/02 07:56:49;;;;;;;0.20;0.10;;;;;;;24.87;44.79;101850.22;5034238;28;20051;-64
2022/04/02 07:59:34;;;;;;;0.30;0.20;;;;;;;24.90;45.69;101847.09;5034084;28;20025;-64
2022/04/02 08:02:01;;;;;;;0.75;0.25;;;;;;;24.87;45.29;101858.47;5034069;28;20080;-64
2022/04/02 08:04:27;;;;;;;0.52;0.00;;;;;;;24.89;45.50;101858.28;5033914;28;20104;-64
2022/04/02 08:06:54;;;;;;;0.45;0.10;;;;;;;24.86;45.98;101858.69;5033180;28;20350;-64
2022/04/02 08:09:20;;;;;;;0.20;0.20;;;;;;;24.89;45.15;101855.53;5033871;28;20105;-64
2022/04/02 08:11:48;;;;;;;0.10;0.10;;;;;;;24.87;45.04;101850.22;5034036;28;20040;-64
2022/04/02 08:14:14;;;;;;;0.82;0.25;;;;;;;24.88;45.63;101846.44;5033744;28;20104;-64
2022/04/02 08:16:43;;;;;;;0.22;0.22;;;;;;;24.85;44.95;101844.03;5033856;28;20036;-64
2022/04/02 08:19:10;;;;;;;0.10;0.10;;;;;;;24.89;45.38;101847.28;5032527;28;20021;-64
2022/04/02 08:21:36;;;;;;;0.80;0.15;;;;;;;24.87;43.68;101850.22;5032342;28;20105;-64
2022/04/02 08:24:03;;;;;;;0.77;0.20;;;;;;;24.92;45.31;101848.78;5033674;28;20533;-64
2022/04/02 08:26:46;;;;;;;0.47;0.03;;;;;;;24.93;45.51;101853.25;5033517;28;20048;-64
2022/04/02 08:29:40;;;;;;;1.20;0.10;;;;;;;24.92;44.67;101851.53;5033626;28;20029;-65
2022/04/02 08:32:24;;;;;;;0.85;0.20;;;;;;;24.89;45.42;101842.63;5033513;28;20032;-64
2022/04/02 08:35:01;;;;;;;0.28;0.08;;;;;;;24.89;44.75;101837.13;5033571;28;20473;-64
2022/04/02 08:37:29;;;;;;;0.40;0.10;;;;;;;24.92;44.94;101851.53;5033245;28;20061;-64
2022/04/02 08:40:06;;;;;;;0.20;0.20;;;;;;;24.91;45.11;101839.69;5033348;28;20017;-64
2022/04/02 08:42:51;;;;;;;1.13;0.32;;;;;;;24.93;45.31;101831.25;5032972;28;20021;-64
2022/04/02 08:45:26;;;;;;;0.40;0.20;;;;;;;24.89;44.37;101837.13;5033180;28;20112;-64
2022/04/02 08:48:10;;;;;;;0.40;0.32;;;;;;;24.90;44.97;101827.84;5033239;28;20025;-64
2022/04/02 08:50:41;;;;;;;0.85;0.10;;;;;;;24.92;45.10;101835.03;5033370;28;20024;-64
2022/04/02 08:53:09;;;;;;;0.30;0.17;;;;;;;24.90;44.99;101832.50;5033136;28;20143;-64
2022/04/02 08:55:34;;;;;;;0.47;0.30;;;;;;;24.90;45.28;101838.84;5031709;28;20491;-64
2022/04/02 08:58:23;;;;;;;1.37;0.30;;;;;;;24.88;45.30;101835.44;5033045;28;20152;-64
2022/04/02 09:01:05;;;;;;;0.35;0.20;;;;;;;24.90;45.20;101833.34;5033089;28;20350;-64
2022/04/02 09:03:54;;;;;;;3.45;0.40;;;;;;;24.89;45.00;101837.13;5032866;28;20053;-64
2022/04/02 09:06:38;;;;;;;1.05;0.15;;;;;;;24.88;44.76;101829.94;5032631;28;20049;-64
2022/04/02 09:09:37;;;;;;;1.97;0.40;;;;;;;24.92;44.94;101830.41;5033006;28;20033;-64
2022/04/02 09:12:30;;;;;;;0.47;0.20;;;;;;;24.93;44.12;101836.75;5032391;28;20269;-65
2022/04/02 09:15:20;;;;;;;0.65;0.20;;;;;;;24.93;45.23;101832.09;5032820;28;20031;-64
2022/04/02 09:18:39;;;;;;;0.35;0.28;;;;;;;24.90;45.48;101827.00;5032738;28;20021;-64
2022/04/02 09:21:27;;;;;;;0.47;0.20;;;;;;;24.95;44.88;101829.16;5011718;28;20036;-64
2022/04/02 09:24:01;;;;;;;0.40;0.20;;;;;;;24.93;45.00;101821.09;5010445;28;20050;-65
2022/04/02 09:26:35;;;;;;;0.52;0.20;;;;;;;24.94;44.47;101822.81;5010290;28;20320;-64
2022/04/02 09:29:14;;;;;;;;;;;;;;;24.93;45.31;101821.09;5011078;28;20076;-64
2022/04/02 09:31:57;;;;;;;0.75;0.30;;;;;;;24.94;45.09;101821.94;5009812;28;19909;-64
2022/04/02 09:34:57;;;;;;;0.70;0.30;;;;;;;24.91;45.05;101817.69;5010248;28;20034;-64
2022/04/02 09:37:59;;;;;;;0.17;0.10;;;;;;;24.93;44.40;101814.75;5010155;28;20108;-64
2022/04/02 09:40:35;;;;;;;0.40;0.20;;;;;;;24.94;44.26;101808.19;5010129;28;20497;-64
2022/04/02 09:43:11;;;;;;;0.88;0.20;;;;;;;24.95;45.39;101804.41;5010339;28;20088;-64
2022/04/02 09:45:51;;;;;;;0.17;0.10;;;;;;;24.92;44.91;101802.03;5010218;28;20072;-64
2022/04/02 09:48:21;;;;;;;0.50;0.10;;;;;;;24.95;44.65;101804.41;5009882;28;20140;-64
2022/04/02 09:50:54;;;;;;;0.13;0.13;;;;;;;24.94;45.19;101799.94;5010277;28;20370;-64
2022/04/02 09:53:25;;;;;;;0.40;0.10;;;;;;;24.89;43.75;101787.63;5011649;28;20454;-64
2022/04/02 09:55:57;;;;;;;0.22;0.20;;;;;;;24.94;44.64;101789.78;5016665;28;20473;-65
2022/04/02 09:58:44;;;;;;;0.60;0.20;;;;;;;24.97;44.94;101788.56;5016572;28;20140;-64
2022/04/02 10:01:25;;;;;;;0.30;0.10;;;;;;;24.93;44.96;101779.00;5016531;28;20030;-64
2022/04/02 10:03:57;;;;;;;0.25;0.20;;;;;;;24.93;45.03;101781.72;5015362;28;20385;-64
2022/04/02 10:06:25;;;;;;;0.10;0.00;;;;;;;24.95;44.78;101779.63;5016288;28;20559;-65
2022/04/02 10:09:16;;;;;;;1.55;0.30;;;;;;;24.93;45.09;101777.09;5016560;28;20022;-64
2022/04/02 10:11:58;;;;;;;0.73;0.20;;;;;;;24.94;45.03;101773.28;5028851;28;20021;-64
2022/04/02 10:14:25;;;;;;;0.77;0.40;;;;;;;24.95;44.69;101763.13;5036242;28;20480;-64
2022/04/02 10:16:53;;;;;;;0.68;0.10;;;;;;;24.94;44.72;101766.94;5036512;28;20108;-64
2022/04/02 10:19:26;;;;;;;0.68;0.15;;;;;;;24.96;45.22;101764.84;5035932;28;20177;-64
2022/04/02 10:21:56;;;;;;;0.22;0.00;;;;;;;24.96;45.08;101762.94;5036000;28;20076;-64
2022/04/02 10:24:23;;;;;;;1.45;0.20;;;;;;;24.96;45.17;101764.84;5035863;28;20056;-63
2022/04/02 10:26:52;;;;;;;0.38;0.20;;;;;;;24.95;44.36;101757.63;5036044;28;20378;-64
2022/04/02 10:29:41;;;;;;;0.45;0.00;;;;;;;24.96;44.91;101743.69;5035756;28;20074;-64
2022/04/02 10:32:29;;;;;;;0.85;0.15;;;;;;;24.93;44.14;101740.47;5035784;28;20029;-64
2022/04/02 10:35:02;;;;;;;0.30;0.10;;;;;;;24.96;44.85;101732.69;5035816;28;20030;-63
2022/04/02 10:37:40;;;;;;;0.10;0.10;;;;;;;24.96;44.86;101734.59;5035805;28;20064;-64
2022/04/02 10:40:09;;;;;;;0.13;0.10;;;;;;;24.94;44.86;101728.44;5035645;28;20100;-64
2022/04/02 10:42:49;;;;;;;0.73;0.10;;;;;;;24.94;44.46;101723.78;5035066;28;20033;-64
2022/04/02 10:45:17;;;;;;;0.05;0.00;;;;;;;24.97;44.61;101730.78;5035472;28;20080;-64
2022/04/02 10:48:08;;;;;;;0.40;0.10;;;;;;;24.98;44.73;101719.56;5035605;28;20025;-63
2022/04/02 10:50:34;;;;;;;0.52;0.10;;;;;;;24.98;44.59;101726.97;5035287;28;20036;-64
2022/04/02 10:53:02;;;;;;;1.23;0.30;;;;;;;24.97;44.58;101722.53;5035279;28;20451;-64
2022/04/02 10:55:28;;;;;;;0.40;0.20;;;;;;;24.94;43.97;101717.41;5033836;28;20029;-64
2022/04/02 10:57:56;;;;;;;0.40;0.20;;;;;;;24.95;44.39;101708.97;5035342;28;20025;-66
2022/04/02 11:00:25;;;;;;;0.22;0.22;;;;;;;24.99;44.73;101710.28;5035189;28;20021;-64
2022/04/02 11:03:02;;;;;;;0.47;0.30;;;;;;;25.00;44.15;101705.66;5035264;28;20036;-64
2022/04/02 11:05:29;;;;;;;0.30;0.30;;;;;;;24.98;45.07;101707.72;5034436;28;20042;-64
2022/04/02 11:08:10;;;;;;;0.40;0.20;;;;;;;24.94;44.08;101712.78;5033816;28;20116;-64
2022/04/02 11:10:36;;;;;;;0.43;0.20;;;;;;;24.95;44.41;101699.88;5034819;28;20044;-64
2022/04/02 11:13:04;;;;;;;0.95;0.20;;;;;;;24.98;45.08;101702.22;5035117;28;20032;-64
2022/04/02 11:15:36;;;;;;;1.00;0.10;;;;;;;24.97;44.62;101695.03;5035149;28;20039;-64
2022/04/02 11:18:02;;;;;;;1.60;0.17;;;;;;;24.96;44.26;101698.81;5034963;28;20030;-64
2022/04/02 11:20:30;;;;;;;0.60;0.15;;;;;;;24.97;44.75;101706.03;5034743;28;20029;-63
2022/04/02 11:22:57;;;;;;;0.28;0.10;;;;;;;24.99;43.77;101698.44;5034843;28;20061;-64
2022/04/02 11:25:24;;;;;;;0.63;0.10;;;;;;;24.94;44.00;101701.78;5034701;28;20508;-63
2022/04/02 11:27:54;;;;;;;0.10;0.10;;;;;;;24.99;44.74;101703.94;5034854;28;20149;-64
2022/04/02 11:30:20;;;;;;;0.43;0.17;;;;;;;24.97;44.34;101692.28;5034666;28;20018;-63
2022/04/02 11:32:48;;;;;;;0.10;0.10;;;;;;;24.98;43.34;101691.22;5034687;28;20058;-64
2022/04/02 11:35:16;;;;;;;0.80;0.28;;;;;;;24.97;44.39;101689.53;5034567;28;20469;-63